< < Back
Terminal Aerodrome Forecast


Current Version              Previous Versions:   1  2  3  4  5  6  7  8  9  

Terminal Aerodrome Forecast

717
FTUS42 KTAE 222300
TAFABY
TAF
KABY 222321Z 2300/2324 06008KT 1/2SM FG OVC002
      TEMPO 2300/2304 1/4SM FG VV002
     FM231600 17009KT 2SM -TSRA BR BKN003 OVC015CB=

Latest METAR

065
SAUS70 KWBC 222300 RRC
MTRABY
METAR KABY 222253Z 06008KT 3/4SM BR OVC002 12/12 A2989 RMK AO2 RAB11E20
SLP122 P0000 T01220117


USA.gov is the U.S. government's official web portal to all federal, state and local government web resources and services.